sensor_id;sensor_type;location;lat;lon;timestamp;temperature;humidity
19279;DHT22;9773;47.062;15.446;2023-04-03T00:00:26;7.20;83.60
19279;DHT22;9773;47.062;15.446;2023-04-03T00:02:52;7.20;83.60
19279;DHT22;9773;47.062;15.446;2023-04-03T00:05:18;7.10;83.80
19279;DHT22;9773;47.062;15.446;2023-04-03T00:07:43;7.00;83.70
19279;DHT22;9773;47.062;15.446;2023-04-03T00:10:09;7.00;84.10
19279;DHT22;9773;47.062;15.446;2023-04-03T00:12:35;7.10;83.30
19279;DHT22;9773;47.062;15.446;2023-04-03T00:15:01;7.00;82.30
19279;DHT22;9773;47.062;15.446;2023-04-03T00:17:27;7.00;82.70
19279;DHT22;9773;47.062;15.446;2023-04-03T00:19:53;7.00;82.90
19279;DHT22;9773;47.062;15.446;2023-04-03T00:22:18;6.90;82.90
19279;DHT22;9773;47.062;15.446;2023-04-03T00:24:44;6.90;82.60
19279;DHT22;9773;47.062;15.446;2023-04-03T00:27:10;6.90;82.90
19279;DHT22;9773;47.062;15.446;2023-04-03T00:29:36;6.80;83.10
19279;DHT22;9773;47.062;15.446;2023-04-03T00:32:02;6.80;83.30
19279;DHT22;9773;47.062;15.446;2023-04-03T00:34:28;6.80;83.70
19279;DHT22;9773;47.062;15.446;2023-04-03T00:36:53;6.80;83.80
19279;DHT22;9773;47.062;15.446;2023-04-03T00:39:19;6.80;83.20
19279;DHT22;9773;47.062;15.446;2023-04-03T00:41:45;6.80;83.60
19279;DHT22;9773;47.062;15.446;2023-04-03T00:47:05;6.80;83.40
19279;DHT22;9773;47.062;15.446;2023-04-03T00:49:32;6.70;83.30
19279;DHT22;9773;47.062;15.446;2023-04-03T00:51:58;6.70;83.70
19279;DHT22;9773;47.062;15.446;2023-04-03T00:54:25;6.70;83.30
19279;DHT22;9773;47.062;15.446;2023-04-03T00:56:53;6.70;83.60
19279;DHT22;9773;47.062;15.446;2023-04-03T00:59:23;6.80;84.00
19279;DHT22;9773;47.062;15.446;2023-04-03T01:01:54;6.80;83.50
19279;DHT22;9773;47.062;15.446;2023-04-03T01:04:34;6.80;83.40
19279;DHT22;9773;47.062;15.446;2023-04-03T01:07:04;6.80;82.90
19279;DHT22;9773;47.062;15.446;2023-04-03T01:09:31;6.70;83.50
19279;DHT22;9773;47.062;15.446;2023-04-03T01:12:22;6.70;83.60
19279;DHT22;9773;47.062;15.446;2023-04-03T01:15:00;6.80;84.20
19279;DHT22;9773;47.062;15.446;2023-04-03T01:17:27;6.80;83.60
19279;DHT22;9773;47.062;15.446;2023-04-03T01:22:37;6.70;83.70
19279;DHT22;9773;47.062;15.446;2023-04-03T01:25:04;6.60;83.80
19279;DHT22;9773;47.062;15.446;2023-04-03T01:27:30;6.60;84.10
19279;DHT22;9773;47.062;15.446;2023-04-03T01:29:56;6.60;83.90
19279;DHT22;9773;47.062;15.446;2023-04-03T01:32:22;6.50;84.40
19279;DHT22;9773;47.062;15.446;2023-04-03T01:34:48;6.50;84.20
19279;DHT22;9773;47.062;15.446;2023-04-03T01:37:13;6.50;84.20
19279;DHT22;9773;47.062;15.446;2023-04-03T01:39:39;6.50;84.30
19279;DHT22;9773;47.062;15.446;2023-04-03T01:42:05;6.30;84.30
19279;DHT22;9773;47.062;15.446;2023-04-03T01:44:31;6.30;84.80
19279;DHT22;9773;47.062;15.446;2023-04-03T01:46:57;6.40;84.80
19279;DHT22;9773;47.062;15.446;2023-04-03T01:49:23;6.40;84.40
19279;DHT22;9773;47.062;15.446;2023-04-03T01:51:49;6.40;84.40
19279;DHT22;9773;47.062;15.446;2023-04-03T01:54:14;6.40;84.50
19279;DHT22;9773;47.062;15.446;2023-04-03T01:56:40;6.40;84.40
19279;DHT22;9773;47.062;15.446;2023-04-03T01:59:06;6.40;84.50
19279;DHT22;9773;47.062;15.446;2023-04-03T02:01:31;6.30;84.50
19279;DHT22;9773;47.062;15.446;2023-04-03T02:03:57;6.30;84.60
19279;DHT22;9773;47.062;15.446;2023-04-03T02:06:23;6.40;84.10
19279;DHT22;9773;47.062;15.446;2023-04-03T02:08:49;6.40;84.50
19279;DHT22;9773;47.062;15.446;2023-04-03T02:11:15;6.50;85.40
19279;DHT22;9773;47.062;15.446;2023-04-03T02:13:41;6.50;85.00
19279;DHT22;9773;47.062;15.446;2023-04-03T02:16:09;6.30;85.30
19279;DHT22;9773;47.062;15.446;2023-04-03T02:18:35;6.20;86.00
19279;DHT22;9773;47.062;15.446;2023-04-03T02:21:01;6.20;86.20
19279;DHT22;9773;47.062;15.446;2023-04-03T02:23:27;6.20;86.20
19279;DHT22;9773;47.062;15.446;2023-04-03T02:25:52;6.30;86.20
19279;DHT22;9773;47.062;15.446;2023-04-03T02:28:18;6.10;86.30
19279;DHT22;9773;47.062;15.446;2023-04-03T02:30:44;6.20;86.50
19279;DHT22;9773;47.062;15.446;2023-04-03T02:33:10;6.10;86.90
19279;DHT22;9773;47.062;15.446;2023-04-03T02:35:35;6.10;86.90
19279;DHT22;9773;47.062;15.446;2023-04-03T02:38:02;6.10;86.30
19279;DHT22;9773;47.062;15.446;2023-04-03T02:40:28;6.00;87.00
19279;DHT22;9773;47.062;15.446;2023-04-03T02:42:53;6.00;87.30
19279;DHT22;9773;47.062;15.446;2023-04-03T02:45:19;5.80;84.90
19279;DHT22;9773;47.062;15.446;2023-04-03T02:47:45;5.80;84.80
19279;DHT22;9773;47.062;15.446;2023-04-03T02:50:10;5.80;83.10
19279;DHT22;9773;47.062;15.446;2023-04-03T02:52:36;5.90;82.80
19279;DHT22;9773;47.062;15.446;2023-04-03T02:55:02;5.90;82.60
19279;DHT22;9773;47.062;15.446;2023-04-03T02:57:28;6.00;82.40
19279;DHT22;9773;47.062;15.446;2023-04-03T02:59:54;6.10;82.30
19279;DHT22;9773;47.062;15.446;2023-04-03T03:02:20;6.10;81.70
19279;DHT22;9773;47.062;15.446;2023-04-03T03:04:46;6.10;81.50
19279;DHT22;9773;47.062;15.446;2023-04-03T03:07:12;6.20;81.60
19279;DHT22;9773;47.062;15.446;2023-04-03T03:09:37;6.10;81.60
19279;DHT22;9773;47.062;15.446;2023-04-03T03:12:03;6.10;81.60
19279;DHT22;9773;47.062;15.446;2023-04-03T03:14:29;6.10;81.80
19279;DHT22;9773;47.062;15.446;2023-04-03T03:16:55;6.10;81.70
19279;DHT22;9773;47.062;15.446;2023-04-03T03:19:21;6.10;81.60
19279;DHT22;9773;47.062;15.446;2023-04-03T03:21:47;6.10;81.50
19279;DHT22;9773;47.062;15.446;2023-04-03T03:24:12;6.20;81.20
19279;DHT22;9773;47.062;15.446;2023-04-03T03:26:38;6.10;81.30
19279;DHT22;9773;47.062;15.446;2023-04-03T03:29:04;6.20;81.40
19279;DHT22;9773;47.062;15.446;2023-04-03T03:31:30;6.10;81.10
19279;DHT22;9773;47.062;15.446;2023-04-03T03:33:55;6.10;81.20
19279;DHT22;9773;47.062;15.446;2023-04-03T03:36:21;6.10;81.20
19279;DHT22;9773;47.062;15.446;2023-04-03T03:38:47;6.20;80.90
19279;DHT22;9773;47.062;15.446;2023-04-03T03:41:13;6.20;81.00
19279;DHT22;9773;47.062;15.446;2023-04-03T03:43:38;6.20;81.10
19279;DHT22;9773;47.062;15.446;2023-04-03T03:46:04;6.30;81.00
19279;DHT22;9773;47.062;15.446;2023-04-03T03:48:30;6.30;81.10
19279;DHT22;9773;47.062;15.446;2023-04-03T03:50:56;6.30;80.90
19279;DHT22;9773;47.062;15.446;2023-04-03T03:53:22;6.30;80.90
19279;DHT22;9773;47.062;15.446;2023-04-03T03:55:47;6.30;81.00
19279;DHT22;9773;47.062;15.446;2023-04-03T03:58:13;6.30;81.20
19279;DHT22;9773;47.062;15.446;2023-04-03T04:00:39;6.30;81.30
19279;DHT22;9773;47.062;15.446;2023-04-03T04:03:04;6.40;80.70
19279;DHT22;9773;47.062;15.446;2023-04-03T04:05:30;6.40;80.80
19279;DHT22;9773;47.062;15.446;2023-04-03T04:07:56;6.40;80.60
19279;DHT22;9773;47.062;15.446;2023-04-03T04:10:22;6.40;80.00
19279;DHT22;9773;47.062;15.446;2023-04-03T04:12:47;6.30;80.40
19279;DHT22;9773;47.062;15.446;2023-04-03T04:15:14;6.30;80.00
19279;DHT22;9773;47.062;15.446;2023-04-03T04:17:40;6.30;80.80
19279;DHT22;9773;47.062;15.446;2023-04-03T04:20:06;6.40;80.00
19279;DHT22;9773;47.062;15.446;2023-04-03T04:22:32;6.30;79.20
19279;DHT22;9773;47.062;15.446;2023-04-03T04:24:58;6.40;79.40
19279;DHT22;9773;47.062;15.446;2023-04-03T04:27:23;6.40;79.70
19279;DHT22;9773;47.062;15.446;2023-04-03T04:29:49;6.40;79.70
19279;DHT22;9773;47.062;15.446;2023-04-03T04:32:15;6.50;79.70
19279;DHT22;9773;47.062;15.446;2023-04-03T04:34:41;6.50;79.70
19279;DHT22;9773;47.062;15.446;2023-04-03T04:37:06;6.50;79.70
19279;DHT22;9773;47.062;15.446;2023-04-03T04:39:32;6.50;79.80
19279;DHT22;9773;47.062;15.446;2023-04-03T04:41:58;6.50;79.80
19279;DHT22;9773;47.062;15.446;2023-04-03T04:44:23;6.50;80.40
19279;DHT22;9773;47.062;15.446;2023-04-03T04:46:49;6.40;80.60
19279;DHT22;9773;47.062;15.446;2023-04-03T04:49:15;6.50;80.80
19279;DHT22;9773;47.062;15.446;2023-04-03T04:51:41;6.60;80.60
19279;DHT22;9773;47.062;15.446;2023-04-03T04:54:06;6.60;80.40
19279;DHT22;9773;47.062;15.446;2023-04-03T04:56:32;6.60;80.80
19279;DHT22;9773;47.062;15.446;2023-04-03T04:58:58;6.70;80.70
19279;DHT22;9773;47.062;15.446;2023-04-03T05:01:23;6.70;80.70
19279;DHT22;9773;47.062;15.446;2023-04-03T05:03:49;6.60;81.00
19279;DHT22;9773;47.062;15.446;2023-04-03T05:06:15;6.60;81.10
19279;DHT22;9773;47.062;15.446;2023-04-03T05:08:41;6.60;81.10
19279;DHT22;9773;47.062;15.446;2023-04-03T05:11:07;6.60;81.30
19279;DHT22;9773;47.062;15.446;2023-04-03T05:13:32;6.50;81.20
19279;DHT22;9773;47.062;15.446;2023-04-03T05:15:58;6.40;81.10
19279;DHT22;9773;47.062;15.446;2023-04-03T05:18:24;6.40;81.00
19279;DHT22;9773;47.062;15.446;2023-04-03T05:20:50;6.40;80.80
19279;DHT22;9773;47.062;15.446;2023-04-03T05:23:16;6.40;81.00
19279;DHT22;9773;47.062;15.446;2023-04-03T05:25:42;6.30;81.10
19279;DHT22;9773;47.062;15.446;2023-04-03T05:28:10;6.30;81.20
19279;DHT22;9773;47.062;15.446;2023-04-03T05:30:36;6.40;81.30
19279;DHT22;9773;47.062;15.446;2023-04-03T05:33:02;6.40;81.00
19279;DHT22;9773;47.062;15.446;2023-04-03T05:35:28;6.40;81.10
19279;DHT22;9773;47.062;15.446;2023-04-03T05:37:54;6.40;81.00
19279;DHT22;9773;47.062;15.446;2023-04-03T05:40:20;6.40;81.00
19279;DHT22;9773;47.062;15.446;2023-04-03T05:42:46;6.40;80.90
19279;DHT22;9773;47.062;15.446;2023-04-03T05:45:11;6.50;81.20
19279;DHT22;9773;47.062;15.446;2023-04-03T05:47:37;6.50;80.80
19279;DHT22;9773;47.062;15.446;2023-04-03T05:50:03;6.40;80.70
19279;DHT22;9773;47.062;15.446;2023-04-03T05:52:38;6.50;80.60
19279;DHT22;9773;47.062;15.446;2023-04-03T05:55:05;6.50;80.70
19279;DHT22;9773;47.062;15.446;2023-04-03T05:57:31;6.50;80.60
19279;DHT22;9773;47.062;15.446;2023-04-03T05:59:57;6.40;80.40
19279;DHT22;9773;47.062;15.446;2023-04-03T06:02:24;6.60;80.40
19279;DHT22;9773;47.062;15.446;2023-04-03T06:04:51;6.70;80.50
19279;DHT22;9773;47.062;15.446;2023-04-03T06:07:21;6.70;79.50
19279;DHT22;9773;47.062;15.446;2023-04-03T06:09:48;6.70;79.80
19279;DHT22;9773;47.062;15.446;2023-04-03T06:12:15;6.70;79.50
19279;DHT22;9773;47.062;15.446;2023-04-03T06:14:40;6.70;79.80
19279;DHT22;9773;47.062;15.446;2023-04-03T06:17:06;6.70;80.00
19279;DHT22;9773;47.062;15.446;2023-04-03T06:19:34;6.70;79.50
19279;DHT22;9773;47.062;15.446;2023-04-03T06:21:59;6.70;79.70
19279;DHT22;9773;47.062;15.446;2023-04-03T06:24:26;6.70;79.90
19279;DHT22;9773;47.062;15.446;2023-04-03T06:26:52;6.90;80.10
19279;DHT22;9773;47.062;15.446;2023-04-03T06:29:19;6.90;80.10
19279;DHT22;9773;47.062;15.446;2023-04-03T06:31:45;7.00;80.00
19279;DHT22;9773;47.062;15.446;2023-04-03T06:34:11;7.00;80.20
19279;DHT22;9773;47.062;15.446;2023-04-03T06:36:38;7.10;79.90
19279;DHT22;9773;47.062;15.446;2023-04-03T06:39:04;7.00;79.70
19279;DHT22;9773;47.062;15.446;2023-04-03T06:41:30;6.90;79.80
19279;DHT22;9773;47.062;15.446;2023-04-03T06:43:56;7.00;79.60
19279;DHT22;9773;47.062;15.446;2023-04-03T06:46:24;7.00;80.00
19279;DHT22;9773;47.062;15.446;2023-04-03T06:48:51;7.10;80.00
19279;DHT22;9773;47.062;15.446;2023-04-03T06:51:22;7.10;79.90
19279;DHT22;9773;47.062;15.446;2023-04-03T06:53:50;7.00;79.80
19279;DHT22;9773;47.062;15.446;2023-04-03T06:56:16;7.00;79.90
19279;DHT22;9773;47.062;15.446;2023-04-03T06:58:42;6.80;79.90
19279;DHT22;9773;47.062;15.446;2023-04-03T07:01:09;6.80;80.40
19279;DHT22;9773;47.062;15.446;2023-04-03T07:03:36;6.80;80.60
19279;DHT22;9773;47.062;15.446;2023-04-03T07:06:03;6.90;79.80
19279;DHT22;9773;47.062;15.446;2023-04-03T07:08:30;7.00;80.50
19279;DHT22;9773;47.062;15.446;2023-04-03T07:10:56;7.20;80.60
19279;DHT22;9773;47.062;15.446;2023-04-03T07:13:22;7.20;80.30
19279;DHT22;9773;47.062;15.446;2023-04-03T07:15:47;7.30;80.20
19279;DHT22;9773;47.062;15.446;2023-04-03T07:18:15;7.30;80.00
19279;DHT22;9773;47.062;15.446;2023-04-03T07:20:42;7.10;79.50
19279;DHT22;9773;47.062;15.446;2023-04-03T07:23:08;7.10;78.70
19279;DHT22;9773;47.062;15.446;2023-04-03T07:25:34;7.00;78.40
19279;DHT22;9773;47.062;15.446;2023-04-03T07:28:00;7.00;79.30
19279;DHT22;9773;47.062;15.446;2023-04-03T07:30:26;7.10;79.00
19279;DHT22;9773;47.062;15.446;2023-04-03T07:32:52;7.30;78.40
19279;DHT22;9773;47.062;15.446;2023-04-03T07:35:18;7.20;78.70
19279;DHT22;9773;47.062;15.446;2023-04-03T07:37:44;7.20;78.60
19279;DHT22;9773;47.062;15.446;2023-04-03T07:40:10;7.30;78.40
19279;DHT22;9773;47.062;15.446;2023-04-03T07:42:36;7.30;78.00
19279;DHT22;9773;47.062;15.446;2023-04-03T07:45:03;7.50;77.40
19279;DHT22;9773;47.062;15.446;2023-04-03T07:47:29;7.70;76.80
19279;DHT22;9773;47.062;15.446;2023-04-03T07:49:55;7.70;76.10
19279;DHT22;9773;47.062;15.446;2023-04-03T07:52:23;7.70;76.30
19279;DHT22;9773;47.062;15.446;2023-04-03T07:54:48;7.60;74.40
19279;DHT22;9773;47.062;15.446;2023-04-03T07:57:15;7.50;74.70
19279;DHT22;9773;47.062;15.446;2023-04-03T07:59:40;7.60;74.70
19279;DHT22;9773;47.062;15.446;2023-04-03T08:02:11;7.40;73.10
19279;DHT22;9773;47.062;15.446;2023-04-03T08:04:37;7.30;73.50
19279;DHT22;9773;47.062;15.446;2023-04-03T08:07:03;7.30;74.70
19279;DHT22;9773;47.062;15.446;2023-04-03T08:09:29;7.40;74.70
19279;DHT22;9773;47.062;15.446;2023-04-03T08:11:55;7.50;73.70
19279;DHT22;9773;47.062;15.446;2023-04-03T08:14:20;7.50;74.60
19279;DHT22;9773;47.062;15.446;2023-04-03T08:16:47;7.50;73.20
19279;DHT22;9773;47.062;15.446;2023-04-03T08:19:14;7.50;72.90
19279;DHT22;9773;47.062;15.446;2023-04-03T08:21:43;7.50;72.50
19279;DHT22;9773;47.062;15.446;2023-04-03T08:24:09;7.50;72.30
19279;DHT22;9773;47.062;15.446;2023-04-03T08:26:35;7.60;72.50
19279;DHT22;9773;47.062;15.446;2023-04-03T08:29:02;7.60;72.70
19279;DHT22;9773;47.062;15.446;2023-04-03T08:31:27;7.70;71.70
19279;DHT22;9773;47.062;15.446;2023-04-03T08:33:53;7.80;71.80
19279;DHT22;9773;47.062;15.446;2023-04-03T08:36:24;7.90;71.00
19279;DHT22;9773;47.062;15.446;2023-04-03T08:38:53;7.80;70.30
19279;DHT22;9773;47.062;15.446;2023-04-03T08:41:27;7.70;70.50
19279;DHT22;9773;47.062;15.446;2023-04-03T08:43:58;7.50;70.60
19279;DHT22;9773;47.062;15.446;2023-04-03T08:49:58;7.80;70.70
19279;DHT22;9773;47.062;15.446;2023-04-03T08:52:41;7.70;69.90
19279;DHT22;9773;47.062;15.446;2023-04-03T08:58:11;7.90;69.30
19279;DHT22;9773;47.062;15.446;2023-04-03T09:03:32;8.00;67.80
19279;DHT22;9773;47.062;15.446;2023-04-03T09:08:45;7.80;65.30
19279;DHT22;9773;47.062;15.446;2023-04-03T09:14:02;7.70;65.10
19279;DHT22;9773;47.062;15.446;2023-04-03T09:19:21;7.60;65.20
19279;DHT22;9773;47.062;15.446;2023-04-03T09:21:48;7.50;64.70
19279;DHT22;9773;47.062;15.446;2023-04-03T09:24:16;7.60;64.50
19279;DHT22;9773;47.062;15.446;2023-04-03T09:26:55;7.60;63.70
19279;DHT22;9773;47.062;15.446;2023-04-03T09:29:24;7.50;64.10
19279;DHT22;9773;47.062;15.446;2023-04-03T09:31:56;7.60;64.40
19279;DHT22;9773;47.062;15.446;2023-04-03T09:34:35;7.50;64.20
19279;DHT22;9773;47.062;15.446;2023-04-03T09:37:03;7.70;65.30
19279;DHT22;9773;47.062;15.446;2023-04-03T09:39:32;7.70;64.70
19279;DHT22;9773;47.062;15.446;2023-04-03T09:42:21;7.70;65.40
19279;DHT22;9773;47.062;15.446;2023-04-03T09:44:56;7.80;65.50
19279;DHT22;9773;47.062;15.446;2023-04-03T09:52:38;7.80;64.50
19279;DHT22;9773;47.062;15.446;2023-04-03T09:55:23;7.80;64.20
19279;DHT22;9773;47.062;15.446;2023-04-03T09:58:04;7.80;64.50
19279;DHT22;9773;47.062;15.446;2023-04-03T10:00:36;7.80;64.30
19279;DHT22;9773;47.062;15.446;2023-04-03T10:03:04;7.80;64.30
19279;DHT22;9773;47.062;15.446;2023-04-03T10:05:39;7.90;64.70
19279;DHT22;9773;47.062;15.446;2023-04-03T10:10:46;8.30;63.90
19279;DHT22;9773;47.062;15.446;2023-04-03T10:13:16;8.10;63.80
19279;DHT22;9773;47.062;15.446;2023-04-03T10:15:57;8.10;64.80
19279;DHT22;9773;47.062;15.446;2023-04-03T10:18:46;8.30;64.60
19279;DHT22;9773;47.062;15.446;2023-04-03T10:21:40;8.50;64.70
19279;DHT22;9773;47.062;15.446;2023-04-03T10:27:00;8.60;64.20
19279;DHT22;9773;47.062;15.446;2023-04-03T10:35:04;9.00;65.30
19279;DHT22;9773;47.062;15.446;2023-04-03T10:43:33;9.20;66.50
19279;DHT22;9773;47.062;15.446;2023-04-03T10:46:13;9.10;65.60
19279;DHT22;9773;47.062;15.446;2023-04-03T10:51:37;8.80;65.80
19279;DHT22;9773;47.062;15.446;2023-04-03T10:54:25;8.70;66.00
19279;DHT22;9773;47.062;15.446;2023-04-03T10:56:57;8.70;66.20
19279;DHT22;9773;47.062;15.446;2023-04-03T10:59:45;8.60;66.30
19279;DHT22;9773;47.062;15.446;2023-04-03T11:02:36;8.70;66.40
19279;DHT22;9773;47.062;15.446;2023-04-03T11:05:07;8.80;64.90
19279;DHT22;9773;47.062;15.446;2023-04-03T11:07:43;8.50;63.90
19279;DHT22;9773;47.062;15.446;2023-04-03T11:13:06;8.50;64.90
19279;DHT22;9773;47.062;15.446;2023-04-03T11:15:33;8.50;63.50
19279;DHT22;9773;47.062;15.446;2023-04-03T11:18:13;8.30;63.50
19279;DHT22;9773;47.062;15.446;2023-04-03T11:20:46;8.20;63.10
19279;DHT22;9773;47.062;15.446;2023-04-03T11:23:25;8.20;63.50
19279;DHT22;9773;47.062;15.446;2023-04-03T11:25:54;8.30;63.80
19279;DHT22;9773;47.062;15.446;2023-04-03T11:28:22;8.40;63.10
19279;DHT22;9773;47.062;15.446;2023-04-03T11:36:49;8.50;63.70
19279;DHT22;9773;47.062;15.446;2023-04-03T11:39:29;8.60;63.80
19279;DHT22;9773;47.062;15.446;2023-04-03T11:42:17;8.70;63.60
19279;DHT22;9773;47.062;15.446;2023-04-03T11:44:50;8.80;62.60
19279;DHT22;9773;47.062;15.446;2023-04-03T11:47:51;8.80;62.30
19279;DHT22;9773;47.062;15.446;2023-04-03T11:50:40;8.90;62.60
19279;DHT22;9773;47.062;15.446;2023-04-03T12:05:56;9.00;63.00
19279;DHT22;9773;47.062;15.446;2023-04-03T12:08:27;9.00;62.70
19279;DHT22;9773;47.062;15.446;2023-04-03T12:11:29;8.90;62.80
19279;DHT22;9773;47.062;15.446;2023-04-03T12:35:13;8.90;61.10
19279;DHT22;9773;47.062;15.446;2023-04-03T12:45:41;9.10;60.00
19279;DHT22;9773;47.062;15.446;2023-04-03T12:48:15;8.80;60.40
19279;DHT22;9773;47.062;15.446;2023-04-03T12:50:41;8.70;61.30
19279;DHT22;9773;47.062;15.446;2023-04-03T12:53:19;8.90;61.30
19279;DHT22;9773;47.062;15.446;2023-04-03T12:55:47;9.00;61.10
19279;DHT22;9773;47.062;15.446;2023-04-03T12:58:15;9.20;60.90
19279;DHT22;9773;47.062;15.446;2023-04-03T13:00:42;9.30;60.50
19279;DHT22;9773;47.062;15.446;2023-04-03T13:03:23;9.40;60.70
19279;DHT22;9773;47.062;15.446;2023-04-03T13:05:50;9.60;61.00
19279;DHT22;9773;47.062;15.446;2023-04-03T13:08:17;9.70;61.20
19279;DHT22;9773;47.062;15.446;2023-04-03T13:10:53;9.70;60.40
19279;DHT22;9773;47.062;15.446;2023-04-03T13:13:20;9.80;60.40
19279;DHT22;9773;47.062;15.446;2023-04-03T13:15:49;9.70;60.00
19279;DHT22;9773;47.062;15.446;2023-04-03T13:18:44;9.70;60.10
19279;DHT22;9773;47.062;15.446;2023-04-03T13:21:23;9.60;60.30
19279;DHT22;9773;47.062;15.446;2023-04-03T13:23:52;9.30;60.40
19279;DHT22;9773;47.062;15.446;2023-04-03T13:26:22;9.20;61.60
19279;DHT22;9773;47.062;15.446;2023-04-03T13:28:50;9.00;60.80
19279;DHT22;9773;47.062;15.446;2023-04-03T13:34:12;9.20;61.50
19279;DHT22;9773;47.062;15.446;2023-04-03T13:36:54;9.30;61.10
19279;DHT22;9773;47.062;15.446;2023-04-03T13:39:35;9.20;61.30
19279;DHT22;9773;47.062;15.446;2023-04-03T13:42:25;9.20;61.30
19279;DHT22;9773;47.062;15.446;2023-04-03T13:47:41;9.50;61.60
19279;DHT22;9773;47.062;15.446;2023-04-03T13:52:59;9.40;61.80
19279;DHT22;9773;47.062;15.446;2023-04-03T13:55:29;9.20;60.90
19279;DHT22;9773;47.062;15.446;2023-04-03T13:58:02;9.20;61.20
19279;DHT22;9773;47.062;15.446;2023-04-03T14:00:47;9.30;60.00
19279;DHT22;9773;47.062;15.446;2023-04-03T14:03:42;9.30;60.10
19279;DHT22;9773;47.062;15.446;2023-04-03T14:06:14;9.10;60.10
19279;DHT22;9773;47.062;15.446;2023-04-03T14:08:41;9.10;59.70
19279;DHT22;9773;47.062;15.446;2023-04-03T14:11:13;9.10;59.40
19279;DHT22;9773;47.062;15.446;2023-04-03T14:13:41;9.10;59.30
19279;DHT22;9773;47.062;15.446;2023-04-03T14:16:07;9.00;59.70
19279;DHT22;9773;47.062;15.446;2023-04-03T14:18:32;9.00;59.80
19279;DHT22;9773;47.062;15.446;2023-04-03T14:20:58;9.10;59.90
19279;DHT22;9773;47.062;15.446;2023-04-03T14:23:24;9.10;59.70
19279;DHT22;9773;47.062;15.446;2023-04-03T14:25:50;9.10;59.80
19279;DHT22;9773;47.062;15.446;2023-04-03T14:28:18;9.10;60.20
19279;DHT22;9773;47.062;15.446;2023-04-03T14:30:45;9.00;60.40
19279;DHT22;9773;47.062;15.446;2023-04-03T14:33:17;9.00;60.20
19279;DHT22;9773;47.062;15.446;2023-04-03T14:35:43;8.90;59.20
19279;DHT22;9773;47.062;15.446;2023-04-03T14:38:30;8.80;59.00
19279;DHT22;9773;47.062;15.446;2023-04-03T14:40:56;8.60;59.10
19279;DHT22;9773;47.062;15.446;2023-04-03T14:43:23;8.60;59.60
19279;DHT22;9773;47.062;15.446;2023-04-03T14:45:50;8.60;59.70
19279;DHT22;9773;47.062;15.446;2023-04-03T14:48:25;8.70;60.20
19279;DHT22;9773;47.062;15.446;2023-04-03T14:50:53;8.60;67.00
19279;DHT22;9773;47.062;15.446;2023-04-03T14:53:20;8.80;67.90
19279;DHT22;9773;47.062;15.446;2023-04-03T14:55:51;8.80;59.50
19279;DHT22;9773;47.062;15.446;2023-04-03T14:58:19;8.80;59.30
19279;DHT22;9773;47.062;15.446;2023-04-03T15:00:46;8.90;59.60
19279;DHT22;9773;47.062;15.446;2023-04-03T15:03:17;8.90;59.10
19279;DHT22;9773;47.062;15.446;2023-04-03T15:05:47;8.90;58.20
19279;DHT22;9773;47.062;15.446;2023-04-03T15:08:19;8.70;58.60
19279;DHT22;9773;47.062;15.446;2023-04-03T15:10:45;8.60;58.90
19279;DHT22;9773;47.062;15.446;2023-04-03T15:13:12;8.60;59.30
19279;DHT22;9773;47.062;15.446;2023-04-03T15:15:39;8.60;58.60
19279;DHT22;9773;47.062;15.446;2023-04-03T15:18:05;8.40;57.70
19279;DHT22;9773;47.062;15.446;2023-04-03T15:20:31;8.30;57.90
19279;DHT22;9773;47.062;15.446;2023-04-03T15:22:59;8.20;59.30
19279;DHT22;9773;47.062;15.446;2023-04-03T15:25:26;8.20;59.70
19279;DHT22;9773;47.062;15.446;2023-04-03T15:27:54;8.20;60.10
19279;DHT22;9773;47.062;15.446;2023-04-03T15:30:21;8.10;58.30
19279;DHT22;9773;47.062;15.446;2023-04-03T15:32:47;8.00;58.80
19279;DHT22;9773;47.062;15.446;2023-04-03T15:35:13;8.00;58.30
19279;DHT22;9773;47.062;15.446;2023-04-03T15:37:39;7.90;58.60
19279;DHT22;9773;47.062;15.446;2023-04-03T15:40:05;7.90;59.00
19279;DHT22;9773;47.062;15.446;2023-04-03T15:42:32;7.80;59.50
19279;DHT22;9773;47.062;15.446;2023-04-03T15:44:57;7.80;60.00
19279;DHT22;9773;47.062;15.446;2023-04-03T15:47:24;7.70;59.10
19279;DHT22;9773;47.062;15.446;2023-04-03T15:49:51;7.70;59.50
19279;DHT22;9773;47.062;15.446;2023-04-03T15:52:16;7.70;59.80
19279;DHT22;9773;47.062;15.446;2023-04-03T15:54:42;7.70;60.20
19279;DHT22;9773;47.062;15.446;2023-04-03T15:57:08;7.70;60.60
19279;DHT22;9773;47.062;15.446;2023-04-03T15:59:34;7.80;59.80
19279;DHT22;9773;47.062;15.446;2023-04-03T16:02:00;7.80;60.00
19279;DHT22;9773;47.062;15.446;2023-04-03T16:04:27;7.70;60.10
19279;DHT22;9773;47.062;15.446;2023-04-03T16:06:53;7.60;60.20
19279;DHT22;9773;47.062;15.446;2023-04-03T16:09:19;7.60;60.70
19279;DHT22;9773;47.062;15.446;2023-04-03T16:11:45;7.60;60.70
19279;DHT22;9773;47.062;15.446;2023-04-03T16:14:11;7.60;61.30
19279;DHT22;9773;47.062;15.446;2023-04-03T16:16:38;7.50;61.50
19279;DHT22;9773;47.062;15.446;2023-04-03T16:19:05;7.50;61.60
19279;DHT22;9773;47.062;15.446;2023-04-03T16:21:32;7.50;61.50
19279;DHT22;9773;47.062;15.446;2023-04-03T16:23:58;7.50;61.70
19279;DHT22;9773;47.062;15.446;2023-04-03T16:26:25;7.50;62.40
19279;DHT22;9773;47.062;15.446;2023-04-03T16:28:52;7.40;62.10
19279;DHT22;9773;47.062;15.446;2023-04-03T16:31:18;7.30;61.60
19279;DHT22;9773;47.062;15.446;2023-04-03T16:33:44;7.20;62.50
19279;DHT22;9773;47.062;15.446;2023-04-03T16:36:10;7.10;62.70
19279;DHT22;9773;47.062;15.446;2023-04-03T16:38:36;7.00;62.20
19279;DHT22;9773;47.062;15.446;2023-04-03T16:41:02;6.90;61.90
19279;DHT22;9773;47.062;15.446;2023-04-03T16:43:33;6.80;61.80
19279;DHT22;9773;47.062;15.446;2023-04-03T16:45:59;6.80;61.90
19279;DHT22;9773;47.062;15.446;2023-04-03T16:48:27;6.80;62.10
19279;DHT22;9773;47.062;15.446;2023-04-03T16:50:53;6.80;62.00
19279;DHT22;9773;47.062;15.446;2023-04-03T16:53:20;6.70;61.80
19279;DHT22;9773;47.062;15.446;2023-04-03T16:55:46;6.60;61.90
19279;DHT22;9773;47.062;15.446;2023-04-03T16:58:12;6.60;62.20
19279;DHT22;9773;47.062;15.446;2023-04-03T17:00:38;6.50;61.00
19279;DHT22;9773;47.062;15.446;2023-04-03T17:03:04;6.40;61.00
19279;DHT22;9773;47.062;15.446;2023-04-03T17:05:30;6.30;60.10
19279;DHT22;9773;47.062;15.446;2023-04-03T17:07:56;6.20;60.30
19279;DHT22;9773;47.062;15.446;2023-04-03T17:10:21;6.20;60.60
19279;DHT22;9773;47.062;15.446;2023-04-03T17:12:47;6.10;60.60
19279;DHT22;9773;47.062;15.446;2023-04-03T17:15:13;6.10;60.80
19279;DHT22;9773;47.062;15.446;2023-04-03T17:17:41;6.10;59.40
19279;DHT22;9773;47.062;15.446;2023-04-03T17:20:08;5.90;59.50
19279;DHT22;9773;47.062;15.446;2023-04-03T17:22:35;5.90;59.70
19279;DHT22;9773;47.062;15.446;2023-04-03T17:25:01;5.80;59.40
19279;DHT22;9773;47.062;15.446;2023-04-03T17:27:26;5.80;59.10
19279;DHT22;9773;47.062;15.446;2023-04-03T17:29:52;5.70;59.20
19279;DHT22;9773;47.062;15.446;2023-04-03T17:32:18;5.70;59.50
19279;DHT22;9773;47.062;15.446;2023-04-03T17:34:47;5.70;59.50
19279;DHT22;9773;47.062;15.446;2023-04-03T17:37:14;5.70;59.50
19279;DHT22;9773;47.062;15.446;2023-04-03T17:39:39;5.60;59.70